Terminal Aerodrome Forecast
Issued by NWS

Current Version | Previous Version | Graphics & Text | Print | Product List | Glossary On
Versions: 1 2 3 4 5 6 7 8 9 10 11 12 13 14 15 16 17
000
FTUS41 KRNK 180520
TAFLWB
TAF
KLWB 180520Z 1806/1906 27006KT P6SM -RA OVC035
      TEMPO 1808/1812 OVC015
     FM181500 29010G26KT P6SM BKN025
     FM182100 30009KT P6SM SCT035
     FM190500 VRB03KT P6SM SCT020=

USA.gov is the U.S. government's official web portal to all federal, state and local government web resources and services.